Time;durP1;ratioP1;P1;durP2;ratioP2;P2;SDS_P1;SDS_P2;PMS_P1;PMS_P2;Temp;Humidity;BMP_temperature;BMP_pressure;BME280_temperature;BME280_humidity;BME280_pressure;Samples;Min_cycle;Max_cycle;Signal;HPM_P1;HPM_P2
2022/01/28 00:05:54;;;;;;;11.07;1.90;;;4.30;99.90;;;;;;12594295;28;20044;-36
2022/01/28 00:11:56;;;;;;;13.73;1.90;;;4.20;99.90;;;;;;12592082;28;20359;-40
2022/01/28 00:43:21;;;;;;;17.80;3.00;;;4.00;99.90;;;;;;12590663;28;20083;-37
2022/01/28 00:49:23;;;;;;;20.67;2.33;;;4.00;99.90;;;;;;12589205;28;20056;-41
2022/01/28 00:55:25;;;;;;;20.35;2.17;;;4.10;99.90;;;;;;12598458;28;20051;-41
2022/01/28 01:01:29;;;;;;;15.52;2.70;;;4.10;99.90;;;;;;12598568;28;20093;-36
2022/01/28 01:07:31;;;;;;;18.37;2.27;;;4.10;99.90;;;;;;12600106;28;20048;-37
2022/01/28 01:13:37;;;;;;;19.67;2.42;;;4.10;99.90;;;;;;12601237;28;20302;-40
2022/01/28 01:19:44;;;;;;;16.52;2.63;;;4.10;99.90;;;;;;12605798;28;20053;-36
2022/01/28 01:25:51;;;;;;;19.50;2.67;;;4.10;99.90;;;;;;12597580;28;20118;-36
2022/01/28 01:32:01;;;;;;;16.70;2.50;;;4.10;99.90;;;;;;12604643;28;20500;-39
2022/01/28 01:38:05;;;;;;;21.27;2.88;;;4.20;99.90;;;;;;12607718;28;20128;-37
2022/01/28 01:44:21;;;;;;;19.60;2.65;;;4.20;99.90;;;;;;12605668;28;20500;-40
2022/01/28 01:56:45;;;;;;;23.92;2.35;;;4.20;99.90;;;;;;12600420;28;20068;-40
2022/01/28 02:02:47;;;;;;;13.65;1.88;;;4.20;99.90;;;;;;12607858;28;20080;-40
2022/01/28 02:08:50;;;;;;;13.75;2.15;;;4.20;99.90;;;;;;12603577;28;20131;-39
2022/01/28 02:14:52;;;;;;;16.10;2.70;;;4.20;99.90;;;;;;12607730;28;20098;-39
2022/01/28 02:20:59;;;;;;;20.52;2.47;;;4.10;99.90;;;;;;12602902;28;20185;-40
2022/01/28 02:27:01;;;;;;;17.70;2.38;;;4.00;99.90;;;;;;12602383;28;20774;-36
2022/01/28 02:33:15;;;;;;;15.10;1.80;;;3.90;99.90;;;;;;12604340;28;20072;-40
2022/01/28 02:39:17;;;;;;;15.95;3.25;;;3.90;99.90;;;;;;12603062;28;20075;-40
2022/01/28 02:45:30;;;;;;;13.38;2.30;;;3.90;99.90;;;;;;12607386;28;20048;-36
2022/01/28 02:51:32;;;;;;;10.63;2.22;;;3.90;99.90;;;;;;12604177;28;20566;-39
2022/01/28 02:57:38;;;;;;;12.95;2.30;;;3.90;99.90;;;;;;12602126;28;20055;-37
2022/01/28 03:03:42;;;;;;;18.23;3.28;;;3.90;99.90;;;;;;12584275;28;20051;-40
2022/01/28 03:09:52;;;;;;;12.80;2.20;;;3.80;99.90;;;;;;12603029;28;20056;-40
2022/01/28 03:16:05;;;;;;;18.85;1.83;;;3.80;99.90;;;;;;12599454;28;20167;-36
2022/01/28 03:22:07;;;;;;;15.55;2.08;;;3.70;99.90;;;;;;12600573;28;20051;-36
2022/01/28 03:28:10;;;;;;;21.38;2.60;;;3.70;99.90;;;;;;12598927;28;20049;-39
2022/01/28 03:34:13;;;;;;;12.73;2.30;;;3.70;99.90;;;;;;12582053;28;20170;-40
2022/01/28 03:40:19;;;;;;;17.23;1.88;;;3.80;99.90;;;;;;12572162;28;20083;-40
2022/01/28 03:46:21;;;;;;;13.85;2.40;;;3.80;99.90;;;;;;12594610;28;20127;-40
2022/01/28 03:52:23;;;;;;;20.80;2.30;;;3.80;99.90;;;;;;12598650;28;20079;-40
2022/01/28 03:58:27;;;;;;;23.38;2.17;;;3.80;99.90;;;;;;12601463;28;20163;-35
2022/01/28 04:23:08;;;;;;;15.18;2.10;;;3.90;99.90;;;;;;12598046;28;20139;-37
2022/01/28 04:29:13;;;;;;;15.88;2.13;;;3.90;99.90;;;;;;12602728;28;20495;-40
2022/01/28 04:35:15;;;;;;;18.35;2.15;;;4.00;99.90;;;;;;12597426;28;20489;-37
2022/01/28 04:41:26;;;;;;;7.90;1.50;;;4.10;99.90;;;;;;12596826;28;20044;-40
2022/01/28 04:47:56;;;;;;;14.70;2.85;;;3.90;99.90;;;;;;12595947;28;20056;-40
2022/01/28 04:54:06;;;;;;;16.67;2.10;;;3.90;99.90;;;;;;12595276;28;20052;-39
2022/01/28 05:31:22;;;;;;;19.92;2.38;;;3.70;99.90;;;;;;12599759;28;20040;-37
2022/01/28 05:37:25;;;;;;;19.17;2.25;;;3.70;99.90;;;;;;12599540;28;20144;-36
2022/01/28 05:43:32;;;;;;;20.02;2.78;;;3.80;99.90;;;;;;12600274;28;20481;-37
2022/01/28 05:49:35;;;;;;;16.98;3.20;;;3.70;99.90;;;;;;12597046;28;20051;-42
2022/01/28 05:55:43;;;;;;;16.17;2.10;;;3.50;99.90;;;;;;12581607;28;20090;-40
2022/01/28 06:01:48;;;;;;;17.90;2.92;;;3.50;99.90;;;;;;12597981;28;20063;-40
2022/01/28 06:08:01;;;;;;;12.90;2.50;;;3.40;99.90;;;;;;12609496;28;20052;-40
2022/01/28 06:14:08;;;;;;;14.85;2.05;;;3.50;99.90;;;;;;12599494;28;20408;-40
2022/01/28 06:20:12;;;;;;;23.05;2.90;;;3.50;99.90;;;;;;12595799;28;20063;-36
2022/01/28 06:26:23;;;;;;;20.35;2.65;;;3.50;99.90;;;;;;12613401;28;20052;-40
2022/01/28 06:32:37;;;;;;;22.42;2.88;;;3.60;99.90;;;;;;12613244;28;20040;-36
2022/01/28 06:38:45;;;;;;;19.13;3.25;;;3.50;99.90;;;;;;12612543;28;20475;-37
2022/01/28 06:44:48;;;;;;;13.27;2.33;;;3.60;99.90;;;;;;12588034;28;20053;-36
2022/01/28 06:50:51;;;;;;;22.30;2.78;;;3.60;99.90;;;;;;12594046;28;20446;-39
2022/01/28 06:56:53;;;;;;;21.83;3.50;;;3.60;99.90;;;;;;12605630;28;20048;-40
2022/01/28 07:02:56;;;;;;;19.48;3.05;;;3.60;99.90;;;;;;12603334;28;20052;-37
2022/01/28 07:09:01;;;;;;;25.02;3.40;;;3.50;99.90;;;;;;12602034;28;20052;-36
2022/01/28 07:15:05;;;;;;;21.90;2.60;;;3.60;99.90;;;;;;12599691;28;20045;-36
2022/01/28 07:21:08;;;;;;;20.95;3.13;;;3.60;99.90;;;;;;12606800;28;20052;-36
2022/01/28 07:27:19;;;;;;;26.70;3.05;;;3.60;99.90;;;;;;12589440;28;20464;-40
2022/01/28 07:33:23;;;;;;;20.80;2.33;;;3.60;99.90;;;;;;12599078;28;20092;-39
2022/01/28 07:39:28;;;;;;;22.10;3.10;;;3.70;99.90;;;;;;12601166;28;20603;-40
2022/01/28 07:45:30;;;;;;;;;;;3.80;99.90;;;;;;12600451;28;20048;-36
2022/01/28 07:51:35;;;;;;;16.67;2.50;;;3.80;99.90;;;;;;12594907;28;20640;-36
2022/01/28 07:57:42;;;;;;;15.10;2.97;;;3.70;99.90;;;;;;12600058;28;20051;-40
2022/01/28 08:03:46;;;;;;;21.20;2.92;;;3.70;99.90;;;;;;12597712;28;20396;-40
2022/01/28 08:09:48;;;;;;;17.02;2.25;;;3.80;99.90;;;;;;12599335;28;20044;-36
2022/01/28 08:15:50;;;;;;;16.38;3.10;;;3.80;99.90;;;;;;12600645;28;20125;-36
2022/01/28 08:21:53;;;;;;;17.08;3.10;;;3.80;99.90;;;;;;12589963;28;20086;-37
2022/01/28 08:27:55;;;;;;;22.85;2.92;;;3.90;99.90;;;;;;12596235;28;20060;-41
2022/01/28 08:33:59;;;;;;;25.30;3.08;;;3.80;99.90;;;;;;12599358;28;20135;-41
2022/01/28 08:40:05;;;;;;;18.95;3.05;;;3.90;99.90;;;;;;12600617;28;20504;-36
2022/01/28 08:46:09;;;;;;;18.10;3.10;;;4.00;99.90;;;;;;12583801;28;20604;-36
2022/01/28 08:52:12;;;;;;;18.35;3.45;;;4.00;99.90;;;;;;12583301;28;20039;-40
2022/01/28 08:58:16;;;;;;;20.92;3.08;;;4.20;99.90;;;;;;12600624;28;20077;-36
2022/01/28 09:04:23;;;;;;;23.92;3.20;;;4.10;99.90;;;;;;12601083;28;20485;-40
2022/01/28 09:10:30;;;;;;;25.02;3.75;;;4.10;99.90;;;;;;12601735;28;20048;-41
2022/01/28 09:16:34;;;;;;;22.27;4.40;;;4.20;99.90;;;;;;12593617;28;20405;-36
2022/01/28 09:22:39;;;;;;;17.90;2.90;;;4.30;99.90;;;;;;12594486;28;20446;-40
2022/01/28 09:28:43;;;;;;;21.92;3.25;;;4.40;99.90;;;;;;12597820;28;20075;-40
2022/01/28 09:34:46;;;;;;;24.35;4.03;;;4.40;99.90;;;;;;12605943;28;20393;-36
2022/01/28 09:40:51;;;;;;;;;;;4.50;99.90;;;;;;12608406;28;20048;-36
2022/01/28 09:46:54;;;;;;;26.42;4.07;;;4.60;99.90;;;;;;12593819;28;19932;-40
2022/01/28 09:52:58;;;;;;;23.25;3.70;;;4.80;99.90;;;;;;12608059;28;20040;-36
2022/01/28 09:59:00;;;;;;;27.63;4.15;;;4.80;99.90;;;;;;12610289;28;20127;-39
2022/01/28 10:05:20;;;;;;;24.85;3.10;;;4.80;99.90;;;;;;12605335;28;20079;-36
2022/01/28 10:11:22;;;;;;;29.70;4.72;;;4.70;99.90;;;;;;12609214;28;20056;-40
2022/01/28 10:17:25;;;;;;;26.48;3.63;;;4.70;99.90;;;;;;12610210;28;20045;-36
2022/01/28 10:23:28;;;;;;;24.92;3.75;;;4.90;99.90;;;;;;12606141;28;20049;-36
2022/01/28 10:29:34;;;;;;;24.88;3.58;;;5.00;99.90;;;;;;12607641;28;20048;-40
2022/01/28 10:35:38;;;;;;;23.38;3.03;;;5.10;99.90;;;;;;12603131;28;20055;-40
2022/01/28 10:41:55;;;;;;;23.42;3.70;;;4.90;99.90;;;;;;12596944;28;20465;-39
2022/01/28 10:48:02;;;;;;;22.65;2.92;;;5.30;99.90;;;;;;12606842;28;20053;-40
2022/01/28 10:54:10;;;;;;;21.10;4.38;;;5.10;99.90;;;;;;12608599;28;20052;-41
2022/01/28 11:00:14;;;;;;;22.63;3.00;;;5.30;99.90;;;;;;12591692;28;20048;-40
2022/01/28 11:06:18;;;;;;;22.40;3.35;;;5.40;99.90;;;;;;12599316;28;20052;-41
2022/01/28 11:12:23;;;;;;;18.00;2.75;;;5.50;99.90;;;;;;12605365;28;20055;-36
2022/01/28 11:18:27;;;;;;;26.80;3.95;;;5.50;99.90;;;;;;12608273;28;20044;-39
2022/01/28 11:25:08;;;;;;;17.07;3.30;;;5.80;99.90;;;;;;12605255;28;20067;-40
2022/01/28 11:31:13;;;;;;;22.70;3.50;;;5.70;99.90;;;;;;12596317;28;20052;-36
2022/01/28 11:37:16;;;;;;;16.70;3.60;;;5.70;99.90;;;;;;12608648;28;20458;-37
2022/01/28 11:43:26;;;;;;;19.70;2.97;;;5.70;99.90;;;;;;12606707;28;20541;-36
2022/01/28 11:49:50;;;;;;;19.92;4.03;;;5.70;99.90;;;;;;12611285;28;20793;-40
2022/01/28 11:56:03;;;;;;;22.25;4.07;;;5.90;99.90;;;;;;12605109;28;20480;-37
2022/01/28 12:02:09;;;;;;;25.40;3.05;;;5.80;99.90;;;;;;12604200;28;20136;-39
2022/01/28 12:08:13;;;;;;;26.58;3.13;;;5.60;99.90;;;;;;12598664;28;20435;-36
2022/01/28 12:14:16;;;;;;;23.13;3.57;;;5.50;99.90;;;;;;12598618;28;20533;-36
2022/01/28 12:20:24;;;;;;;26.35;3.83;;;5.40;99.90;;;;;;12599487;28;20105;-36
2022/01/28 12:26:26;;;;;;;26.88;3.53;;;5.80;99.90;;;;;;12582642;28;20791;-36
2022/01/28 12:32:29;;;;;;;22.20;4.45;;;5.90;99.90;;;;;;12598798;28;20055;-36
2022/01/28 12:38:56;;;;;;;28.55;3.45;;;6.10;99.90;;;;;;12597729;28;20059;-36
2022/01/28 12:45:00;;;;;;;14.82;2.58;;;6.40;99.90;;;;;;12602366;28;20051;-40
2022/01/28 12:51:03;;;;;;;18.20;3.53;;;6.40;99.90;;;;;;12590347;28;20044;-40
2022/01/28 12:57:10;;;;;;;22.35;3.58;;;6.30;99.90;;;;;;12598003;28;20408;-41
2022/01/28 13:03:27;;;;;;;23.80;3.75;;;6.50;99.90;;;;;;12596677;28;20045;-36
2022/01/28 13:09:32;;;;;;;17.95;2.60;;;6.40;99.90;;;;;;12602372;28;20476;-40
2022/01/28 13:15:35;;;;;;;19.10;2.72;;;6.10;99.90;;;;;;12608641;28;20059;-36
2022/01/28 13:21:39;;;;;;;20.33;3.25;;;6.30;99.90;;;;;;12607587;28;20170;-36
2022/01/28 13:27:49;;;;;;;28.20;3.63;;;6.10;99.90;;;;;;12609119;28;20060;-36
2022/01/28 13:33:59;;;;;;;20.15;3.00;;;5.90;99.90;;;;;;12606132;28;20167;-36
2022/01/28 13:40:02;;;;;;;16.42;2.47;;;6.00;99.90;;;;;;12594727;28;20048;-40
2022/01/28 13:46:12;;;;;;;23.75;3.15;;;6.10;99.90;;;;;;12606508;28;20140;-40
2022/01/28 13:52:22;;;;;;;18.77;3.35;;;6.10;99.90;;;;;;12606579;28;20045;-36
2022/01/28 13:58:25;;;;;;;20.98;2.92;;;6.10;99.90;;;;;;12605436;28;20485;-39
2022/01/28 14:04:32;;;;;;;16.48;2.63;;;6.10;99.90;;;;;;12582890;28;20461;-39
2022/01/28 14:10:38;;;;;;;17.75;2.60;;;6.10;99.90;;;;;;12598791;28;20078;-39
2022/01/28 14:16:40;;;;;;;21.92;3.67;;;6.00;99.90;;;;;;12603047;28;20044;-40
2022/01/28 14:22:42;;;;;;;17.27;2.83;;;6.10;99.90;;;;;;12593072;28;20401;-40
2022/01/28 14:29:20;;;;;;;21.77;3.13;;;6.10;99.90;;;;;;12601236;28;20362;-42
2022/01/28 14:35:13;;;;;;;18.00;2.67;;;6.00;99.90;;;;;;12601507;28;20047;-40
2022/01/28 14:41:16;;;;;;;14.95;3.03;;;5.90;99.90;;;;;;12598779;28;20051;-41
2022/01/28 14:47:18;;;;;;;13.63;2.22;;;5.80;99.90;;;;;;12600609;28;20063;-40
2022/01/28 14:53:20;;;;;;;20.60;2.50;;;5.80;99.90;;;;;;12593960;28;20051;-37
2022/01/28 14:59:23;;;;;;;22.08;3.25;;;5.70;99.90;;;;;;12601354;28;20055;-40
2022/01/28 15:05:28;;;;;;;17.92;2.72;;;5.70;99.90;;;;;;12594825;28;20059;-40
2022/01/28 15:11:48;;;;;;;24.65;3.85;;;5.60;99.90;;;;;;12582140;28;20550;-37
2022/01/28 15:17:50;;;;;;;18.60;3.20;;;5.70;99.90;;;;;;12596310;28;20091;-40
2022/01/28 15:23:52;;;;;;;22.70;2.88;;;5.50;99.90;;;;;;12599665;28;20055;-39
2022/01/28 15:30:05;;;;;;;21.45;3.15;;;5.50;99.90;;;;;;12593596;28;20137;-39
2022/01/28 15:36:07;;;;;;;18.52;2.92;;;5.30;99.90;;;;;;12597536;28;20066;-36
2022/01/28 15:42:13;;;;;;;16.77;3.00;;;5.40;99.90;;;;;;12594235;28;20059;-39
2022/01/28 15:48:18;;;;;;;22.65;3.22;;;5.30;99.90;;;;;;12597041;28;20056;-36
2022/01/28 15:54:20;;;;;;;19.20;2.92;;;5.20;99.90;;;;;;12596964;28;20051;-36
2022/01/28 16:00:22;;;;;;;21.13;3.67;;;5.20;99.90;;;;;;12595125;28;20092;-36
2022/01/28 16:06:25;;;;;;;23.13;2.75;;;5.00;99.90;;;;;;12579094;28;20156;-37
2022/01/28 16:12:46;;;;;;;18.83;2.50;;;4.90;99.90;;;;;;12593286;28;20045;-37
2022/01/28 16:18:47;;;;;;;20.73;4.05;;;4.80;99.90;;;;;;12596857;28;20044;-40
2022/01/28 16:24:50;;;;;;;22.80;4.30;;;4.70;99.90;;;;;;12594588;28;20139;-39
2022/01/28 16:30:55;;;;;;;15.82;3.03;;;4.70;99.90;;;;;;12592726;28;20075;-37
2022/01/28 16:36:57;;;;;;;21.30;3.30;;;4.80;99.90;;;;;;12591498;28;20044;-40
2022/01/28 16:43:04;;;;;;;24.17;3.72;;;4.80;99.90;;;;;;12591228;28;20052;-40
2022/01/28 16:49:08;;;;;;;19.35;3.00;;;4.70;99.90;;;;;;12596516;28;20052;-40
2022/01/28 16:55:17;;;;;;;18.33;3.07;;;4.60;99.90;;;;;;12591927;28;20047;-36
2022/01/28 17:01:19;;;;;;;24.40;4.32;;;4.50;99.90;;;;;;12589369;28;20341;-39
2022/01/28 17:07:23;;;;;;;26.15;3.88;;;4.60;99.90;;;;;;12596253;28;20048;-36
2022/01/28 17:13:25;;;;;;;24.52;3.10;;;4.60;99.90;;;;;;12597934;28;20084;-37
2022/01/28 17:19:27;;;;;;;19.55;3.70;;;4.60;99.90;;;;;;12599373;28;20072;-40
2022/01/28 17:25:29;;;;;;;21.02;3.47;;;4.60;99.90;;;;;;12592519;28;20099;-37
2022/01/28 17:31:32;;;;;;;26.52;6.03;;;4.50;99.90;;;;;;12591762;28;20078;-37
2022/01/28 17:37:34;;;;;;;18.23;3.25;;;4.40;99.90;;;;;;12595788;28;20055;-40
2022/01/28 17:43:36;;;;;;;23.90;3.22;;;4.40;99.90;;;;;;12589794;28;20106;-36
2022/01/28 17:49:39;;;;;;;21.73;3.15;;;4.30;99.90;;;;;;12589368;28;20045;-37
2022/01/28 17:55:41;;;;;;;15.77;2.90;;;4.20;99.90;;;;;;12590631;28;20635;-38
2022/01/28 18:01:47;;;;;;;23.88;3.08;;;4.20;99.90;;;;;;12583764;28;20100;-36
2022/01/28 18:07:49;;;;;;;20.38;3.05;;;4.10;99.90;;;;;;12593646;28;20051;-36
2022/01/28 18:13:53;;;;;;;22.75;3.25;;;4.10;99.90;;;;;;12596324;28;20047;-39
2022/01/28 18:19:55;;;;;;;21.92;3.20;;;4.10;99.90;;;;;;12602529;28;20089;-41
2022/01/28 18:26:00;;;;;;;18.35;2.80;;;4.10;99.90;;;;;;12595430;28;20401;-40
2022/01/28 18:32:03;;;;;;;20.02;2.78;;;4.20;99.90;;;;;;12600430;28;20086;-37
2022/01/28 18:38:05;;;;;;;17.15;3.55;;;4.20;99.90;;;;;;12583768;28;20101;-37
2022/01/28 18:44:16;;;;;;;22.23;3.70;;;4.20;99.90;;;;;;12596746;28;20044;-39
2022/01/28 18:50:22;;;;;;;13.23;3.65;;;4.10;99.90;;;;;;12600396;28;20048;-42
2022/01/28 18:56:24;;;;;;;18.48;3.13;;;4.10;99.90;;;;;;12601370;28;20545;-40
2022/01/28 19:02:28;;;;;;;22.67;4.03;;;4.10;99.90;;;;;;12599708;28;20086;-40
2022/01/28 19:08:31;;;;;;;16.30;3.00;;;4.20;99.90;;;;;;12600296;28;20053;-40
2022/01/28 19:14:33;;;;;;;20.35;3.30;;;4.20;99.90;;;;;;12599928;28;20040;-36
2022/01/28 19:20:35;;;;;;;24.85;4.32;;;4.20;99.90;;;;;;12580429;28;20047;-36
2022/01/28 19:26:37;;;;;;;25.90;4.07;;;4.10;99.90;;;;;;12597272;28;20500;-40
2022/01/28 19:32:39;;;;;;;21.45;3.60;;;4.10;99.90;;;;;;12600201;28;20074;-36
2022/01/28 19:38:41;;;;;;;13.65;3.28;;;4.10;99.90;;;;;;12587592;28;20048;-36
2022/01/28 19:44:44;;;;;;;31.70;4.03;;;4.00;99.90;;;;;;12593984;28;20139;-40
2022/01/28 19:50:50;;;;;;;19.50;3.78;;;4.00;99.90;;;;;;12594951;28;20419;-36
2022/01/28 19:56:52;;;;;;;22.83;3.95;;;4.10;99.90;;;;;;12597873;28;20128;-36
2022/01/28 20:02:54;;;;;;;18.15;4.05;;;4.10;99.90;;;;;;12598330;28;20488;-40
2022/01/28 20:08:57;;;;;;;20.63;4.38;;;4.10;99.90;;;;;;12596254;28;20059;-40
2022/01/28 20:14:59;;;;;;;14.15;4.63;;;4.10;99.90;;;;;;12595452;28;20096;-40
2022/01/28 20:21:02;;;;;;;23.77;6.43;;;4.20;99.90;;;;;;12594062;28;20815;-36
2022/01/28 20:27:04;;;;;;;21.10;5.50;;;4.20;99.90;;;;;;12592681;28;20056;-38
2022/01/28 20:33:06;;;;;;;23.73;6.07;;;4.20;99.90;;;;;;12594450;28;20116;-36
2022/01/28 20:39:08;;;;;;;25.13;6.25;;;4.10;99.90;;;;;;12597256;28;20109;-42
2022/01/28 20:45:11;;;;;;;20.73;7.70;;;4.10;99.90;;;;;;12593694;28;20053;-40
2022/01/28 20:51:12;;;;;;;27.45;8.45;;;4.10;99.90;;;;;;12595845;28;20077;-40
2022/01/28 20:57:15;;;;;;;31.30;10.70;;;4.20;99.90;;;;;;12601311;28;20048;-40
2022/01/28 21:03:16;;;;;;;26.40;11.85;;;4.20;99.90;;;;;;12597603;28;20197;-36
2022/01/28 21:09:20;;;;;;;32.25;14.40;;;4.20;99.90;;;;;;12595238;28;20060;-40
2022/01/28 21:15:22;;;;;;;32.45;13.30;;;4.40;99.90;;;;;;12595939;28;20048;-40
2022/01/28 21:21:24;;;;;;;33.03;13.70;;;4.40;99.90;;;;;;12594891;28;20044;-39
2022/01/28 21:27:26;;;;;;;29.40;12.70;;;4.40;99.90;;;;;;12594326;28;20052;-40
2022/01/28 21:33:31;;;;;;;35.17;13.88;;;4.40;99.90;;;;;;12603213;28;20184;-36
2022/01/28 21:39:36;;;;;;;38.35;14.70;;;4.30;99.90;;;;;;12604269;28;20056;-36
2022/01/28 21:45:40;;;;;;;35.88;16.42;;;4.30;99.90;;;;;;12603259;28;20607;-40
2022/01/28 21:51:42;;;;;;;37.07;17.20;;;4.30;99.90;;;;;;12603803;28;20047;-37
2022/01/28 21:57:45;;;;;;;40.80;20.67;;;4.40;99.90;;;;;;12597861;28;20135;-36
2022/01/28 22:03:47;;;;;;;46.85;23.15;;;4.40;99.90;;;;;;12600307;28;20048;-36
2022/01/28 22:09:49;;;;;;;49.42;24.15;;;4.50;99.90;;;;;;12586640;28;20523;-41
2022/01/28 22:15:51;;;;;;;61.75;28.23;;;4.50;99.90;;;;;;12600420;28;20052;-36
2022/01/28 22:21:53;;;;;;;57.78;29.10;;;4.50;99.90;;;;;;12601909;28;20075;-36
2022/01/28 22:27:55;;;;;;;59.33;30.00;;;4.50;99.90;;;;;;12587261;28;20843;-36
2022/01/28 22:33:57;;;;;;;61.53;31.27;;;4.50;99.90;;;;;;12599500;28;20112;-36
2022/01/28 22:40:00;;;;;;;61.25;31.65;;;4.50;99.90;;;;;;12601051;28;20056;-40
2022/01/28 22:46:02;;;;;;;66.32;32.55;;;4.50;99.90;;;;;;12601177;28;20072;-36
2022/01/28 22:52:04;;;;;;;64.45;31.85;;;4.50;99.90;;;;;;12604787;28;20055;-42
2022/01/28 22:58:06;;;;;;;70.30;34.35;;;4.60;99.90;;;;;;12601782;28;20388;-40
2022/01/28 23:04:08;;;;;;;66.85;33.72;;;4.60;99.90;;;;;;12592176;28;20052;-37
2022/01/28 23:10:13;;;;;;;70.22;32.90;;;4.60;99.90;;;;;;12591559;28;20370;-37
2022/01/28 23:16:16;;;;;;;73.40;34.15;;;4.70;99.90;;;;;;12599167;28;20048;-37
2022/01/28 23:22:18;;;;;;;68.93;32.72;;;4.70;99.90;;;;;;12599669;28;21140;-37
2022/01/28 23:28:20;;;;;;;72.38;34.33;;;4.80;99.90;;;;;;12598332;28;20052;-39
2022/01/28 23:34:22;;;;;;;71.10;34.17;;;4.80;99.90;;;;;;12598263;28;20051;-40
2022/01/28 23:40:24;;;;;;;75.05;34.67;;;4.80;99.90;;;;;;12597459;28;20532;-40
2022/01/28 23:46:26;;;;;;;63.70;32.10;;;4.80;99.90;;;;;;12586719;28;20056;-40
2022/01/28 23:52:28;;;;;;;62.08;31.98;;;4.80;99.90;;;;;;12599224;28;20108;-40
2022/01/28 23:58:31;;;;;;;65.85;32.22;;;4.80;99.90;;;;;;12590734;28;20390;-40
